sensor_id;sensor_type;location;lat;lon;timestamp;temperature;humidity
12374;DHT22;6251;51.762;8.660;2022-09-21T04:04:46;5.10;99.90
12374;DHT22;6251;51.762;8.660;2022-09-21T04:14:46;5.00;99.90
12374;DHT22;6251;51.762;8.660;2022-09-21T04:24:49;5.00;99.90
12374;DHT22;6251;51.762;8.660;2022-09-21T04:34:49;4.90;99.90
12374;DHT22;6251;51.762;8.660;2022-09-21T04:44:50;4.80;99.90
12374;DHT22;6251;51.762;8.660;2022-09-21T04:54:51;4.70;99.90
12374;DHT22;6251;51.762;8.660;2022-09-21T05:04:52;4.60;99.90
12374;DHT22;6251;51.762;8.660;2022-09-21T05:14:53;4.60;99.90
12374;DHT22;6251;51.762;8.660;2022-09-21T05:24:55;4.50;99.90
12374;DHT22;6251;51.762;8.660;2022-09-21T05:45:06;4.40;99.90
12374;DHT22;6251;51.762;8.660;2022-09-21T06:05:28;4.50;99.90
12374;DHT22;6251;51.762;8.660;2022-09-21T06:15:29;4.60;99.90
12374;DHT22;6251;51.762;8.660;2022-09-21T06:25:34;4.80;99.90
12374;DHT22;6251;51.762;8.660;2022-09-21T06:35:35;4.90;99.90
12374;DHT22;6251;51.762;8.660;2022-09-21T06:45:36;5.10;99.90
12374;DHT22;6251;51.762;8.660;2022-09-21T06:55:37;5.30;99.90
12374;DHT22;6251;51.762;8.660;2022-09-21T07:05:38;5.60;99.90
12374;DHT22;6251;51.762;8.660;2022-09-21T07:15:39;5.90;99.90
12374;DHT22;6251;51.762;8.660;2022-09-21T07:25:47;6.20;99.90
12374;DHT22;6251;51.762;8.660;2022-09-21T07:35:55;6.50;99.90
12374;DHT22;6251;51.762;8.660;2022-09-21T07:45:56;6.80;99.90
12374;DHT22;6251;51.762;8.660;2022-09-21T07:56:05;7.10;99.90
12374;DHT22;6251;51.762;8.660;2022-09-21T08:06:06;7.40;99.90
12374;DHT22;6251;51.762;8.660;2022-09-21T08:16:08;7.80;99.90
12374;DHT22;6251;51.762;8.660;2022-09-21T08:26:11;8.00;99.90
12374;DHT22;6251;51.762;8.660;2022-09-21T08:36:17;8.30;99.90
12374;DHT22;6251;51.762;8.660;2022-09-21T08:46:25;8.60;99.90
12374;DHT22;6251;51.762;8.660;2022-09-21T08:56:26;8.90;99.90
12374;DHT22;6251;51.762;8.660;2022-09-21T09:16:52;9.30;99.90
12374;DHT22;6251;51.762;8.660;2022-09-21T09:27:02;9.60;99.90
12374;DHT22;6251;51.762;8.660;2022-09-21T09:37:11;9.90;99.90
12374;DHT22;6251;51.762;8.660;2022-09-21T09:57:54;10.60;99.90
12374;DHT22;6251;51.762;8.660;2022-09-21T10:07:55;10.80;99.90
12374;DHT22;6251;51.762;8.660;2022-09-21T10:18:05;11.00;99.90
12374;DHT22;6251;51.762;8.660;2022-09-21T10:28:11;11.20;99.90
12374;DHT22;6251;51.762;8.660;2022-09-21T10:38:19;11.50;99.90
12374;DHT22;6251;51.762;8.660;2022-09-21T10:48:27;11.70;99.90
12374;DHT22;6251;51.762;8.660;2022-09-21T10:58:29;12.00;99.90
12374;DHT22;6251;51.762;8.660;2022-09-21T11:08:43;12.40;99.90
12374;DHT22;6251;51.762;8.660;2022-09-21T11:19:09;12.60;99.90
12374;DHT22;6251;51.762;8.660;2022-09-21T11:29:18;12.90;99.90
12374;DHT22;6251;51.762;8.660;2022-09-21T11:49:57;13.40;99.90
12374;DHT22;6251;51.762;8.660;2022-09-21T12:00:10;13.60;99.90
12374;DHT22;6251;51.762;8.660;2022-09-21T12:20:41;14.10;99.90
12374;DHT22;6251;51.762;8.660;2022-09-21T12:30:49;14.10;99.90
12374;DHT22;6251;51.762;8.660;2022-09-21T12:51:31;14.50;99.90
12374;DHT22;6251;51.762;8.660;2022-09-21T13:12:23;14.90;99.90
12374;DHT22;6251;51.762;8.660;2022-09-21T13:22:29;15.20;99.90
12374;DHT22;6251;51.762;8.660;2022-09-21T13:32:50;15.40;99.90
12374;DHT22;6251;51.762;8.660;2022-09-21T13:42:51;15.60;99.90
12374;DHT22;6251;51.762;8.660;2022-09-21T13:52:55;15.90;99.90
12374;DHT22;6251;51.762;8.660;2022-09-21T14:03:02;16.10;99.90
12374;DHT22;6251;51.762;8.660;2022-09-21T14:13:21;16.50;99.90
12374;DHT22;6251;51.762;8.660;2022-09-21T14:23:25;16.70;99.90
12374;DHT22;6251;51.762;8.660;2022-09-21T14:33:46;16.90;99.90
12374;DHT22;6251;51.762;8.660;2022-09-21T14:43:50;17.20;99.90
12374;DHT22;6251;51.762;8.660;2022-09-21T14:54:14;17.00;99.90
12374;DHT22;6251;51.762;8.660;2022-09-21T15:14:33;16.10;99.90
12374;DHT22;6251;51.762;8.660;2022-09-21T15:24:46;15.60;99.90
12374;DHT22;6251;51.762;8.660;2022-09-21T15:34:47;15.20;99.90
12374;DHT22;6251;51.762;8.660;2022-09-21T15:44:49;14.90;99.90
12374;DHT22;6251;51.762;8.660;2022-09-21T15:54:58;14.60;99.90
12374;DHT22;6251;51.762;8.660;2022-09-21T16:05:00;14.40;99.90
12374;DHT22;6251;51.762;8.660;2022-09-21T16:23:51;14.10;99.90
12374;DHT22;6251;51.762;8.660;2022-09-21T16:43:55;13.80;99.90
12374;DHT22;6251;51.762;8.660;2022-09-21T16:53:57;13.60;99.90
12374;DHT22;6251;51.762;8.660;2022-09-21T17:03:59;13.30;99.90
12374;DHT22;6251;51.762;8.660;2022-09-21T17:13:59;13.00;99.90
12374;DHT22;6251;51.762;8.660;2022-09-21T17:24:04;12.70;99.90
12374;DHT22;6251;51.762;8.660;2022-09-21T17:34:09;12.40;99.90
12374;DHT22;6251;51.762;8.660;2022-09-21T17:44:16;12.20;99.90
12374;DHT22;6251;51.762;8.660;2022-09-21T17:54:27;11.90;99.90
12374;DHT22;6251;51.762;8.660;2022-09-21T18:04:29;11.70;99.90
12374;DHT22;6251;51.762;8.660;2022-09-21T18:24:41;11.30;99.90
12374;DHT22;6251;51.762;8.660;2022-09-21T18:35:08;11.00;99.90
12374;DHT22;6251;51.762;8.660;2022-09-21T18:55:27;10.60;99.90
12374;DHT22;6251;51.762;8.660;2022-09-21T19:05:28;10.30;99.90
12374;DHT22;6251;51.762;8.660;2022-09-21T19:16:01;10.10;99.90
12374;DHT22;6251;51.762;8.660;2022-09-21T19:26:16;10.00;99.90
12374;DHT22;6251;51.762;8.660;2022-09-21T19:36:20;9.80;99.90
12374;DHT22;6251;51.762;8.660;2022-09-21T19:46:36;9.70;99.90
12374;DHT22;6251;51.762;8.660;2022-09-21T19:56:46;9.50;99.90
12374;DHT22;6251;51.762;8.660;2022-09-21T20:07:36;9.40;99.90
12374;DHT22;6251;51.762;8.660;2022-09-21T20:18:02;9.30;99.90
12374;DHT22;6251;51.762;8.660;2022-09-21T20:28:10;9.10;99.90
12374;DHT22;6251;51.762;8.660;2022-09-21T20:38:11;9.00;99.90
12374;DHT22;6251;51.762;8.660;2022-09-21T20:48:12;8.80;99.90
12374;DHT22;6251;51.762;8.660;2022-09-21T20:58:12;8.70;99.90
12374;DHT22;6251;51.762;8.660;2022-09-21T21:08:33;8.60;99.90
